»·PEaware :: N138MC KVNY-KPMD

N138MC :: KVNY-KPMD

FLIGHT INFORMATION

Flight Status: Arrived
Operator: Privately registered:
United States
More flights under this callsign
Pilot: Joshua L. (42356)
Aircraft: CIRRUS SR-22 TURBO
(S22T)
More flights by this aircraft type
Origin: KVNY Van Nuys
United States
Destination: KPMD Palmdale AF Plant 42
United States
More flights between these airports :: More routes between these airports
Route: NUAL1 PMD
File this flight plan on PilotEdge
Remarks: RMK / SIMBRIEF
Altitude:
(Current/Filed)
5,500ft
Speed:
(Current/Filed)
177kts
Departed: 23-Nov-22 03:06 PM
Arrived: 23-Nov-22 03:29 PM
Distance/Time
Traveled:
33nm/0:23
Distance/Time
To Go:
Arrived

Flight Plot

Page will automatically refresh every two minutes.

Flight plan parsing failed; only flown route is shown


Map Options




Map Legend


Flown Route
Filed Route
Departure Airport
Arrival Airport
Navaid (VOR, NDB)
Fix

Horizontal Profiles

Position Reports

Time Latitude Longitude Heading Altitude Ground
Speed
23-Nov-22 14:41 34.202820 -118.491396 0 804ft 0kts
23-Nov-22 14:42 34.202820 -118.491396 0 804ft 0kts
23-Nov-22 14:43 34.202820 -118.491396 0 804ft 0kts
23-Nov-22 14:44 34.202820 -118.491396 0 804ft 0kts
23-Nov-22 14:45 34.202820 -118.491396 0 804ft 0kts
23-Nov-22 14:46 34.202820 -118.491396 0 804ft 0kts
23-Nov-22 14:47 34.202820 -118.491396 0 804ft 0kts
23-Nov-22 14:48 34.202820 -118.491396 0 804ft 0kts
23-Nov-22 14:49 34.202820 -118.491396 0 804ft 0kts
23-Nov-22 14:50 34.202820 -118.491396 0 804ft 0kts
23-Nov-22 14:51 34.202820 -118.491396 0 804ft 0kts
23-Nov-22 14:52 34.202820 -118.491396 0 804ft 0kts
23-Nov-22 14:53 34.202820 -118.491396 0 804ft 0kts
23-Nov-22 14:54 34.202820 -118.491396 0 804ft 0kts
23-Nov-22 14:55 34.202820 -118.491396 0 804ft 0kts
23-Nov-22 14:56 34.202820 -118.491396 0 804ft 0kts
23-Nov-22 14:57 34.202820 -118.491396 0 804ft 0kts
23-Nov-22 14:58 34.202820 -118.491396 0 804ft 0kts
23-Nov-22 14:59 34.202820 -118.491396 0 804ft 0kts
23-Nov-22 15:00 34.202820 -118.491396 0 804ft 0kts
23-Nov-22 15:01 34.202764 -118.491253 2 804ft 0kts
23-Nov-22 15:02 34.202757 -118.491220 193 804ft 4kts
23-Nov-22 15:03 34.202737 -118.491260 160 804ft 0kts
23-Nov-22 15:05 34.202737 -118.491260 160 804ft 0kts
23-Nov-22 15:06 34.205902 -118.491328 2 804ft 42kts
23-Nov-22 15:07 34.212914 -118.491863 19 804ft 0kts
23-Nov-22 15:08 34.212926 -118.491857 17 804ft 0kts
23-Nov-22 15:09 34.206992 -118.490156 171 869ft 89kts
23-Nov-22 15:10 34.181789 -118.485407 161 1918ft 102kts
23-Nov-22 15:11 34.174914 -118.505984 325 2822ft 98kts
23-Nov-22 15:12 34.182961 -118.533582 248 3739ft 107kts
23-Nov-22 15:13 34.199136 -118.552642 351 4680ft 109kts
23-Nov-22 15:14 34.232155 -118.559791 351 5851ft 126kts
23-Nov-22 15:15 34.266642 -118.560917 31 6925ft 134kts
23-Nov-22 15:16 34.297665 -118.593404 304 6923ft 186kts
23-Nov-22 15:17 34.330034 -118.584852 69 6927ft 167kts
23-Nov-22 15:18 34.349324 -118.532881 60 6917ft 170kts
23-Nov-22 15:19 34.372745 -118.482312 59 6916ft 170kts
23-Nov-22 15:20 34.399216 -118.434690 52 6916ft 171kts
23-Nov-22 15:21 34.428122 -118.388718 52 6916ft 171kts
23-Nov-22 15:22 34.457030 -118.342688 52 6918ft 171kts
23-Nov-22 15:23 34.486017 -118.296501 52 6918ft 172kts
23-Nov-22 15:24 34.515409 -118.249613 52 6798ft 176kts
23-Nov-22 15:25 34.546913 -118.197582 52 5531ft 197kts
23-Nov-22 15:26 34.574009 -118.156593 49 5018ft 118kts
23-Nov-22 15:27 34.598139 -118.119845 50 3633ft 113kts
23-Nov-22 15:28 34.615051 -118.094378 48 2814ft 114kts
23-Nov-22 15:29 34.627430 -118.075243 61 2512ft 0kts
23-Nov-22 15:30 34.627998 -118.074747 54 2511ft 28kts
23-Nov-22 15:30 34.629996 -118.074176 311 2507ft 0kts
23-Nov-22 15:31 34.630773 -118.074536 26 2507ft 17kts

Navigation Log

Ident Type
Flight plan parsing failed, navigation log unavailable